Time;durP1;ratioP1;P1;durP2;ratioP2;P2;SDS_P1;SDS_P2;PMS_P1;PMS_P2;Temp;Humidity;BMP_temperature;BMP_pressure;BME280_temperature;BME280_humidity;BME280_pressure;Samples;Min_cycle;Max_cycle;Signal;HPM_P1;HPM_P2
2023/01/16 00:02:31;;;;;;;7.80;4.60;;;;;;;4.53;88.24;99330.23;107335;1258;83032;-55
2023/01/16 00:05:07;;;;;;;5.40;3.90;;;;;;;4.51;88.26;99330.61;107349;1254;98907;-51
2023/01/16 00:07:46;;;;;;;6.80;4.40;;;;;;;4.49;88.17;99326.81;107341;1255;87599;-51
2023/01/16 00:10:29;;;;;;;7.20;4.60;;;;;;;4.48;88.14;99322.40;107359;1258;95350;-51
2023/01/16 00:13:11;;;;;;;7.00;4.30;;;;;;;4.50;88.22;99320.96;107316;1255;82496;-54
2023/01/16 00:15:51;;;;;;;6.10;4.10;;;;;;;4.52;88.06;99317.38;107368;1258;83572;-55
2023/01/16 00:18:31;;;;;;;7.30;4.40;;;;;;;4.51;87.91;99313.70;107347;1258;97575;-56
2023/01/16 00:21:14;;;;;;;7.30;4.60;;;;;;;4.49;87.87;99319.42;107320;1255;87080;-55
2023/01/16 00:23:56;;;;;;;7.40;4.60;;;;;;;4.44;88.05;99321.29;107329;1258;95456;-54
2023/01/16 00:26:42;;;;;;;8.20;4.30;;;;;;;4.38;87.95;99320.90;107378;1256;79636;-55
2023/01/16 00:29:23;;;;;;;5.70;3.70;;;;;;;4.30;88.08;99322.18;107369;1254;82054;-55
2023/01/16 00:32:09;;;;;;;7.70;4.20;;;;;;;4.25;88.07;99325.81;107391;1259;97134;-51
2023/01/16 00:34:51;;;;;;;6.90;4.20;;;;;;;4.19;87.97;99328.45;107425;1258;87187;-52
2023/01/16 00:37:27;;;;;;;5.90;3.60;;;;;;;4.13;88.15;99326.52;107338;1258;95290;-52
2023/01/16 00:40:05;;;;;;;6.50;3.60;;;;;;;4.07;88.01;99334.69;107323;1256;80630;-53
2023/01/16 00:42:44;;;;;;;7.20;4.80;;;;;;;4.01;88.17;99336.38;107417;1258;82278;-53
2023/01/16 00:45:22;;;;;;;7.30;3.90;;;;;;;3.95;88.21;99333.30;107374;1259;98989;-51
2023/01/16 00:48:02;;;;;;;7.90;4.10;;;;;;;3.92;88.32;99336.77;107359;1255;88904;-51
2023/01/16 00:50:37;;;;;;;9.40;4.30;;;;;;;3.90;88.31;99339.64;107326;1254;94229;-54
2023/01/16 00:53:16;;;;;;;6.80;4.10;;;;;;;3.88;88.25;99339.84;107267;1256;79763;-53
2023/01/16 00:55:57;;;;;;;6.90;3.90;;;;;;;3.86;88.28;99341.92;107346;1254;81077;-53
2023/01/16 00:58:36;;;;;;;7.70;3.80;;;;;;;3.84;88.37;99342.13;107289;1254;98297;-53
2023/01/16 01:01:16;;;;;;;7.80;4.30;;;;;;;3.83;88.62;99341.46;107372;1256;89229;-54
2023/01/16 01:03:58;;;;;;;6.30;3.80;;;;;;;3.85;88.48;99341.83;107325;1255;96266;-57
2023/01/16 01:06:41;;;;;;;8.10;4.20;;;;;;;3.83;88.59;99343.10;107367;1258;79398;-53
2023/01/16 01:09:19;;;;;;;7.60;3.90;;;;;;;3.82;88.77;99338.05;107341;1260;83249;-53
2023/01/16 01:12:01;;;;;;;8.00;4.00;;;;;;;3.79;88.70;99338.52;107380;1254;97553;-53
2023/01/16 01:14:41;;;;;;;7.00;3.90;;;;;;;3.76;88.72;99338.75;107394;1254;87825;-53
2023/01/16 01:17:23;;;;;;;7.70;4.70;;;;;;;3.74;88.90;99334.34;107362;1257;94961;-53
2023/01/16 01:20:07;;;;;;;5.90;3.90;;;;;;;3.71;88.89;99335.39;107375;1259;81647;-52
2023/01/16 01:22:49;;;;;;;7.10;4.30;;;;;;;3.68;88.98;99334.66;107442;1255;81695;-51
2023/01/16 01:25:28;;;;;;;7.00;4.30;;;;;;;3.68;89.14;99332.52;107395;1256;98308;-51
2023/01/16 01:28:11;;;;;;;7.90;4.60;;;;;;;3.66;89.09;99335.03;107387;1258;88303;-52
2023/01/16 01:30:49;;;;;;;6.80;4.40;;;;;;;3.62;89.05;99330.73;107385;1260;94016;-54
2023/01/16 01:33:33;;;;;;;6.40;4.30;;;;;;;3.60;89.07;99331.27;107392;1256;83464;-54
2023/01/16 01:36:10;;;;;;;7.10;4.50;;;;;;;3.59;89.14;99332.86;107338;1257;80954;-54
2023/01/16 01:38:46;;;;;;;7.50;4.60;;;;;;;3.61;89.23;99328.15;107350;1254;98299;-55
2023/01/16 01:41:28;;;;;;;7.70;4.40;;;;;;;3.61;89.04;99322.81;107351;1255;86450;-53
2023/01/16 01:44:54;;;;;;;6.40;4.40;;;;;;;3.64;89.16;99319.86;107305;1254;92817;-54
2023/01/16 01:47:37;;;;;;;6.10;4.00;;;;;;;3.64;89.04;99318.02;107261;1256;83283;-53
2023/01/16 01:50:22;;;;;;;6.60;4.20;;;;;;;3.56;89.22;99321.26;107304;1254;82081;-52
2023/01/16 01:53:09;;;;;;;7.00;4.20;;;;;;;3.53;89.19;99318.71;107324;1260;98262;-52
2023/01/16 01:55:57;;;;;;;7.50;4.30;;;;;;;3.50;89.04;99317.30;107359;1254;86895;-54
2023/01/16 01:58:43;;;;;;;6.00;4.10;;;;;;;3.48;89.14;99313.20;107382;1254;93834;-56
2023/01/16 02:01:24;;;;;;;7.70;4.40;;;;;;;3.46;89.09;99309.16;107429;1254;79219;-50
2023/01/16 02:04:06;;;;;;;8.70;5.20;;;;;;;3.39;89.35;99312.98;107441;1254;81941;-51
2023/01/16 02:06:55;;;;;;;6.00;4.10;;;;;;;3.33;89.09;99315.30;107422;1254;96683;-53
2023/01/16 02:09:33;;;;;;;8.20;4.50;;;;;;;3.28;89.17;99318.39;107276;1254;86805;-52
2023/01/16 02:12:12;;;;;;;7.00;4.40;;;;;;;3.24;89.01;99318.98;107380;1254;92733;-52
2023/01/16 02:14:54;;;;;;;5.40;3.80;;;;;;;3.17;88.97;99316.98;107351;1259;81004;-54
2023/01/16 02:20:33;;;;;;;7.00;4.10;;;;;;;3.04;88.84;99316.14;107336;1254;98602;-54
2023/01/16 02:23:50;;;;;;;6.80;4.60;;;;;;;2.95;89.01;99313.03;107321;1254;88780;-54
2023/01/16 02:27:11;;;;;;;6.40;4.20;;;;;;;2.87;89.03;99309.14;107370;1254;94447;-51
2023/01/16 02:30:11;;;;;;;7.10;3.90;;;;;;;2.81;89.27;99310.38;107365;1254;80691;-55
2023/01/16 02:33:02;;;;;;;6.70;4.10;;;;;;;2.78;89.25;99310.34;107332;1254;81313;-55
2023/01/16 02:35:58;;;;;;;6.60;4.10;;;;;;;2.76;89.18;99314.70;107358;1255;99901;-52
2023/01/16 02:38:49;;;;;;;6.40;4.40;;;;;;;2.74;89.12;99309.35;107370;1254;87939;-50
2023/01/16 02:41:41;;;;;;;5.90;4.20;;;;;;;2.69;89.28;99305.50;107432;1254;95406;-55
2023/01/16 02:44:38;;;;;;;11.10;4.50;;;;;;;2.66;89.12;99305.50;107391;1254;81045;-55
2023/01/16 02:47:25;;;;;;;7.50;4.60;;;;;;;2.61;89.25;99308.49;107403;1258;81304;-53
2023/01/16 02:50:11;;;;;;;6.20;4.40;;;;;;;2.66;89.38;99304.73;107383;1259;97385;-52
2023/01/16 02:52:54;;;;;;;7.90;4.50;;;;;;;2.64;89.49;99303.73;107466;1255;89014;-51
2023/01/16 02:55:43;;;;;;;8.20;4.70;;;;;;;2.63;89.21;99305.51;107444;1258;94417;-50
2023/01/16 02:58:22;;;;;;;7.10;4.70;;;;;;;2.58;89.40;99302.30;107426;1259;81613;-51
2023/01/16 03:01:01;;;;;;;8.10;4.70;;;;;;;2.53;89.46;99301.92;107429;1258;82145;-51
2023/01/16 03:03:49;;;;;;;9.20;5.40;;;;;;;2.50;89.30;99302.65;107360;1258;99006;-50
2023/01/16 03:06:44;;;;;;;6.50;4.60;;;;;;;2.44;89.33;99299.71;107342;1258;88750;-52
2023/01/16 03:09:42;;;;;;;7.60;4.80;;;;;;;2.37;89.41;99300.80;107370;1254;95924;-52
2023/01/16 03:12:35;;;;;;;7.70;4.80;;;;;;;2.35;89.53;99300.13;107347;1254;79373;-54
2023/01/16 03:15:23;;;;;;;6.80;4.60;;;;;;;2.39;89.60;99301.51;107344;1254;82438;-53
2023/01/16 03:18:11;;;;;;;7.20;4.60;;;;;;;2.36;89.92;99303.94;107318;1254;96888;-53
2023/01/16 03:20:59;;;;;;;8.10;5.10;;;;;;;2.37;89.75;99302.55;107336;1254;87943;-53
2023/01/16 03:23:53;;;;;;;7.30;4.20;;;;;;;2.36;89.98;99302.50;107344;1260;94425;-53
2023/01/16 03:26:40;;;;;;;7.70;4.60;;;;;;;2.32;89.95;99301.13;107344;1260;79826;-55
2023/01/16 03:29:29;;;;;;;7.90;5.00;;;;;;;2.34;89.99;99303.73;107374;1258;81987;-55
2023/01/16 03:32:18;;;;;;;9.20;5.10;;;;;;;2.31;90.07;99302.30;107376;1258;99582;-52
2023/01/16 03:35:06;;;;;;;10.80;4.90;;;;;;;2.28;90.14;99305.69;107377;1254;88893;-51
2023/01/16 03:37:48;;;;;;;9.10;4.80;;;;;;;2.24;90.32;99305.75;107386;1254;95689;-52
2023/01/16 03:40:30;;;;;;;6.20;4.70;;;;;;;2.21;90.27;99307.87;107374;1254;81547;-52
2023/01/16 03:43:13;;;;;;;7.90;5.00;;;;;;;2.18;90.29;99307.13;107421;1254;82294;-52
2023/01/16 03:45:58;;;;;;;7.40;5.20;;;;;;;2.20;90.26;99309.46;107444;1254;95823;-51
2023/01/16 03:48:47;;;;;;;9.20;5.30;;;;;;;2.20;90.31;99311.66;107465;1258;88746;-51
2023/01/16 03:51:33;;;;;;;8.90;5.70;;;;;;;2.23;90.49;99309.77;107412;1254;95121;-52
2023/01/16 03:54:25;;;;;;;8.80;5.70;;;;;;;2.24;90.48;99303.32;107404;1254;82112;-53
2023/01/16 03:57:09;;;;;;;7.20;5.20;;;;;;;2.26;90.61;99303.39;107382;1254;82427;-53
2023/01/16 03:59:51;;;;;;;9.30;6.00;;;;;;;2.19;90.45;99300.21;107410;1254;98929;-52
2023/01/16 04:02:34;;;;;;;9.60;6.20;;;;;;;2.15;90.51;99299.44;107356;1254;88417;-52
2023/01/16 04:05:18;;;;;;;9.20;5.70;;;;;;;2.16;90.70;99299.17;107377;1254;94233;-55
2023/01/16 04:07:59;;;;;;;8.90;5.00;;;;;;;2.17;90.80;99297.44;107353;1254;81624;-55
2023/01/16 04:10:44;;;;;;;9.00;6.40;;;;;;;2.16;90.84;99302.17;107381;1258;81214;-53
2023/01/16 04:13:29;;;;;;;9.30;6.10;;;;;;;2.12;90.92;99302.63;107362;1254;99417;-52
2023/01/16 04:16:09;;;;;;;8.40;5.70;;;;;;;2.12;90.93;99305.98;107404;1254;89260;-54
2023/01/16 04:18:56;;;;;;;9.50;5.70;;;;;;;2.12;90.91;99304.02;107332;1254;94010;-55
2023/01/16 04:21:40;;;;;;;8.20;6.10;;;;;;;2.10;90.83;99299.98;107364;1254;81744;-53
2023/01/16 04:24:24;;;;;;;9.00;6.40;;;;;;;2.07;90.84;99299.63;107328;1258;82934;-54
2023/01/16 04:27:07;;;;;;;9.90;5.90;;;;;;;2.07;90.83;99300.91;107401;1254;99062;-51
2023/01/16 04:29:42;;;;;;;9.90;6.10;;;;;;;2.01;90.66;99299.89;107422;1258;86817;-50
2023/01/16 04:32:21;;;;;;;9.80;5.90;;;;;;;2.01;90.75;99302.05;107388;1254;94867;-52
2023/01/16 04:34:58;;;;;;;8.80;5.80;;;;;;;1.97;90.75;99297.66;107392;1254;81652;-52
2023/01/16 04:37:46;;;;;;;10.30;6.50;;;;;;;1.91;90.83;99305.20;107414;1254;83352;-52
2023/01/16 04:40:33;;;;;;;10.20;6.80;;;;;;;1.88;90.96;99307.14;107415;1254;97155;-51
2023/01/16 04:43:15;;;;;;;8.30;6.00;;;;;;;1.91;91.17;99308.11;107386;1254;86156;-53
2023/01/16 04:45:50;;;;;;;7.90;6.30;;;;;;;1.89;91.06;99312.22;107350;1254;94771;-53
2023/01/16 04:48:30;;;;;;;9.90;6.40;;;;;;;1.85;90.99;99310.81;107359;1254;80127;-53
2023/01/16 04:51:10;;;;;;;10.20;6.10;;;;;;;1.84;91.19;99317.30;107381;1254;81488;-52
2023/01/16 04:53:58;;;;;;;10.50;6.00;;;;;;;1.83;91.13;99319.96;107340;1254;97636;-51
2023/01/16 04:56:41;;;;;;;9.80;6.30;;;;;;;1.86;91.09;99316.61;107381;1254;88831;-49
2023/01/16 04:59:22;;;;;;;8.40;6.30;;;;;;;1.89;91.23;99323.05;107329;1254;94197;-51
2023/01/16 05:02:04;;;;;;;10.70;6.20;;;;;;;1.92;91.41;99319.73;107347;1259;79799;-53
2023/01/16 05:04:47;;;;;;;9.00;6.50;;;;;;;1.91;91.33;99320.30;107385;1254;82628;-52
2023/01/16 05:07:26;;;;;;;9.90;6.20;;;;;;;1.90;91.27;99320.45;107349;1254;98625;-53
2023/01/16 05:10:02;;;;;;;11.60;6.90;;;;;;;1.88;91.11;99316.05;107439;1254;89468;-53
2023/01/16 05:12:41;;;;;;;10.30;6.70;;;;;;;1.86;91.09;99314.68;107381;1259;92944;-53
2023/01/16 05:15:22;;;;;;;10.20;6.40;;;;;;;1.83;91.01;99320.06;107404;1254;81305;-52
2023/01/16 05:18:02;;;;;;;10.00;6.60;;;;;;;1.73;91.09;99317.39;107426;1254;83153;-53
2023/01/16 05:20:42;;;;;;;9.70;6.40;;;;;;;1.71;91.05;99310.16;107428;1254;98104;-54
2023/01/16 05:23:24;;;;;;;10.40;6.30;;;;;;;1.68;91.06;99307.32;107412;1254;89074;-54
2023/01/16 05:26:03;;;;;;;10.60;7.20;;;;;;;1.63;91.20;99297.90;107412;1254;93888;-53
2023/01/16 05:28:40;;;;;;;10.60;6.60;;;;;;;1.63;91.29;99297.48;107380;1254;81731;-52
2023/01/16 05:31:22;;;;;;;11.10;7.00;;;;;;;1.64;91.17;99301.21;107377;1258;81035;-52
2023/01/16 05:34:01;;;;;;;11.80;7.10;;;;;;;1.64;91.33;99296.02;107386;1254;98456;-52
2023/01/16 05:36:38;;;;;;;9.60;6.50;;;;;;;1.64;91.19;99291.42;107091;1254;387542;-54
2023/01/16 05:39:16;;;;;;;10.00;6.20;;;;;;;1.63;91.25;99294.36;107371;1254;94962;-53
2023/01/16 05:41:55;;;;;;;9.10;6.20;;;;;;;1.61;91.21;99295.27;107385;1258;81750;-54
2023/01/16 05:44:37;;;;;;;8.70;6.10;;;;;;;1.65;91.31;99295.19;107375;1254;82637;-51
2023/01/16 05:47:19;;;;;;;8.80;6.20;;;;;;;1.65;91.15;99292.40;107341;1254;98265;-54
2023/01/16 05:49:59;;;;;;;8.50;6.30;;;;;;;1.65;91.29;99298.25;107384;1254;87426;-54
2023/01/16 05:52:39;;;;;;;9.30;6.20;;;;;;;1.63;91.22;99299.31;107394;1254;94139;-55
2023/01/16 05:55:16;;;;;;;10.20;6.30;;;;;;;1.60;91.18;99299.06;107368;1256;78339;-55
2023/01/16 05:58:00;;;;;;;8.00;5.80;;;;;;;1.56;91.22;99287.60;107416;1258;82413;-55
2023/01/16 06:00:41;;;;;;;7.90;5.70;;;;;;;1.55;91.12;99287.52;107404;1254;98633;-52
2023/01/16 06:03:20;;;;;;;10.10;6.60;;;;;;;1.51;91.21;99285.48;107367;1254;89294;-53
2023/01/16 06:06:05;;;;;;;7.70;5.30;;;;;;;1.54;91.33;99280.55;107305;1254;92995;-55
2023/01/16 06:08:44;;;;;;;8.70;5.90;;;;;;;1.52;91.18;99280.10;107485;1254;80117;-52
2023/01/16 06:11:20;;;;;;;8.20;5.80;;;;;;;1.49;91.09;99276.46;107438;1254;83257;-54
2023/01/16 06:14:03;;;;;;;8.50;5.50;;;;;;;1.51;91.21;99273.31;107413;1254;98656;-51
2023/01/16 06:16:48;;;;;;;9.10;6.20;;;;;;;1.51;91.20;99271.17;107373;1254;88688;-53
2023/01/16 06:19:28;;;;;;;9.60;5.30;;;;;;;1.53;91.18;99271.96;107417;1254;95115;-54
2023/01/16 06:22:11;;;;;;;9.60;5.90;;;;;;;1.54;91.17;99274.59;107363;1254;79388;-51
2023/01/16 06:24:49;;;;;;;8.10;5.30;;;;;;;1.55;91.24;99279.41;107423;1258;82090;-51
2023/01/16 06:27:29;;;;;;;11.00;5.80;;;;;;;1.60;91.34;99282.16;107379;1254;97467;-51
2023/01/16 06:30:09;;;;;;;7.00;5.10;;;;;;;1.62;91.33;99283.11;107259;1254;88947;-54
2023/01/16 06:32:49;;;;;;;7.80;5.30;;;;;;;1.59;91.15;99285.38;107361;1258;94173;-55
2023/01/16 06:35:28;;;;;;;7.70;5.20;;;;;;;1.63;91.16;99283.35;107396;1254;78516;-50
2023/01/16 06:38:03;;;;;;;8.70;5.30;;;;;;;1.63;91.32;99279.82;107340;1254;82052;-51
2023/01/16 06:40:44;;;;;;;8.20;4.90;;;;;;;1.67;91.25;99282.58;107391;1254;98162;-52
2023/01/16 06:43:20;;;;;;;7.20;5.00;;;;;;;1.71;91.25;99284.73;107438;1254;87616;-52
2023/01/16 06:45:59;;;;;;;7.90;5.10;;;;;;;1.78;91.12;99284.38;107380;1258;94952;-55
2023/01/16 06:48:37;;;;;;;7.90;4.70;;;;;;;1.82;91.33;99283.12;107392;1254;81653;-52
2023/01/16 06:51:13;;;;;;;6.90;4.70;;;;;;;1.86;91.11;99282.55;107484;1254;82142;-54
2023/01/16 06:53:52;;;;;;;7.90;5.30;;;;;;;1.89;91.22;99285.57;107364;1254;98162;-51
2023/01/16 06:56:29;;;;;;;9.40;4.80;;;;;;;1.91;91.19;99280.77;107413;1254;87662;-54
2023/01/16 06:59:07;;;;;;;6.50;4.50;;;;;;;1.89;91.12;99283.98;107404;1254;94599;-54
2023/01/16 07:01:55;;;;;;;8.30;5.00;;;;;;;1.91;91.06;99287.51;107404;1254;80167;-52
2023/01/16 07:04:37;;;;;;;7.10;5.10;;;;;;;1.92;91.02;99285.48;107402;1254;83046;-53
2023/01/16 07:07:19;;;;;;;8.50;4.80;;;;;;;1.94;91.00;99286.29;107367;1254;98421;-53
2023/01/16 07:09:58;;;;;;;8.30;4.60;;;;;;;1.98;91.07;99287.83;107407;1254;88666;-50
2023/01/16 07:12:35;;;;;;;11.40;5.20;;;;;;;2.00;90.77;99287.45;107409;1254;94553;-50
2023/01/16 07:24:18;;;;;;;7.40;4.80;;;;;;;2.17;90.78;99279.52;107093;1254;88905;-51
2023/01/16 07:27:08;;;;;;;8.10;4.60;;;;;;;2.26;90.64;99280.80;107401;1254;93351;-54
2023/01/16 07:29:48;;;;;;;6.20;4.50;;;;;;;2.34;90.63;99281.79;107420;1254;77872;-53
2023/01/16 07:32:28;;;;;;;7.60;5.10;;;;;;;2.44;90.50;99275.00;107380;1254;82382;-54
2023/01/16 07:35:09;;;;;;;8.30;5.00;;;;;;;2.63;90.45;99270.42;107425;1254;98856;-50
2023/01/16 07:37:56;;;;;;;9.80;5.70;;;;;;;2.75;90.38;99273.57;107319;1255;89933;-51
2023/01/16 07:40:44;;;;;;;9.60;4.90;;;;;;;2.82;90.22;99274.73;107415;1254;94072;-53
2023/01/16 07:43:20;;;;;;;7.60;4.50;;;;;;;3.02;89.97;99270.95;107473;1254;80512;-53
2023/01/16 07:45:59;;;;;;;7.50;5.00;;;;;;;3.13;89.96;99262.00;107452;1254;80413;-52
2023/01/16 07:48:41;;;;;;;8.70;5.50;;;;;;;3.23;89.60;99262.31;107463;1254;98837;-51
2023/01/16 07:51:25;;;;;;;8.70;4.40;;;;;;;3.32;89.47;99261.83;107442;1254;88148;-54
2023/01/16 07:54:12;;;;;;;8.40;5.30;;;;;;;3.40;89.25;99262.17;107366;1254;93824;-54
2023/01/16 07:56:54;;;;;;;8.70;5.40;;;;;;;3.52;89.26;99264.44;107383;1254;77852;-53
2023/01/16 07:59:33;;;;;;;8.50;5.00;;;;;;;3.99;89.16;99266.52;107416;1254;82452;-54
2023/01/16 08:02:13;;;;;;;7.60;5.00;;;;;;;4.40;88.67;99265.27;107365;1254;98970;-51
2023/01/16 08:04:50;;;;;;;8.00;4.90;;;;;;;4.93;87.81;99253.94;107416;1254;88945;-53
2023/01/16 08:07:27;;;;;;;8.50;5.10;;;;;;;5.38;87.20;99247.67;107366;1258;92335;-53
2023/01/16 08:10:07;;;;;;;7.00;4.90;;;;;;;5.38;86.73;99247.20;107351;1254;79751;-52
2023/01/16 08:12:48;;;;;;;8.40;5.20;;;;;;;5.07;86.38;99247.15;107399;1254;83287;-52
2023/01/16 08:15:27;;;;;;;8.40;5.10;;;;;;;4.77;86.18;99249.88;107438;1258;98724;-55
2023/01/16 08:18:03;;;;;;;8.60;5.50;;;;;;;4.56;86.16;99248.24;107322;1254;88089;-55
2023/01/16 08:20:44;;;;;;;11.60;7.50;;;;;;;4.47;86.22;99247.02;107405;1254;93177;-52
2023/01/16 08:23:28;;;;;;;12.10;6.60;;;;;;;4.29;86.22;99249.60;107436;1254;79009;-52
2023/01/16 08:26:08;;;;;;;12.90;8.00;;;;;;;4.16;86.11;99247.69;107461;1254;80517;-55
2023/01/16 08:28:53;;;;;;;10.60;6.50;;;;;;;4.08;86.00;99248.48;107443;1254;98025;-55
2023/01/16 08:31:30;;;;;;;9.20;5.20;;;;;;;3.92;85.93;99249.54;107468;1254;88407;-55
2023/01/16 08:34:17;;;;;;;15.80;7.70;;;;;;;3.87;86.03;99247.51;107413;1254;95488;-55
2023/01/16 08:37:01;;;;;;;12.30;7.00;;;;;;;3.81;85.92;99245.20;107482;1254;82399;-55
2023/01/16 08:39:41;;;;;;;12.90;7.00;;;;;;;3.86;86.36;99248.92;107504;1254;83210;-53
2023/01/16 08:51:24;;;;;;;13.60;8.00;;;;;;;4.09;86.59;99244.50;107480;1254;78785;-53
2023/01/16 08:54:06;;;;;;;9.50;6.20;;;;;;;4.22;86.27;99243.52;107428;1255;82812;-53
2023/01/16 08:56:51;;;;;;;10.10;6.40;;;;;;;4.34;86.47;99239.45;107281;1259;97099;-52
2023/01/16 08:59:33;;;;;;;8.70;5.20;;;;;;;4.43;86.40;99235.60;107402;1254;88264;-51
2023/01/16 09:02:14;;;;;;;8.30;5.40;;;;;;;4.46;86.19;99228.41;107347;1254;94853;-53
2023/01/16 09:04:55;;;;;;;7.60;5.20;;;;;;;4.56;86.05;99222.84;107382;1254;79872;-53
2023/01/16 09:07:31;;;;;;;7.70;4.90;;;;;;;4.67;86.01;99221.41;107361;1254;80578;-54
2023/01/16 09:10:07;;;;;;;10.00;4.90;;;;;;;4.82;85.93;99213.52;107401;1254;98832;-53
2023/01/16 09:15:41;;;;;;;7.10;4.70;;;;;;;4.99;85.32;99207.77;107378;1254;93151;-52
2023/01/16 09:18:24;;;;;;;8.20;5.10;;;;;;;5.02;85.10;99210.08;107398;1254;77608;-52
2023/01/16 09:21:02;;;;;;;7.90;4.50;;;;;;;5.03;85.02;99208.65;107501;1258;82941;-52
2023/01/16 09:23:39;;;;;;;6.60;4.50;;;;;;;5.08;84.73;99205.82;107466;1254;98307;-53
2023/01/16 09:26:16;;;;;;;7.70;4.80;;;;;;;5.00;84.12;99205.98;107439;1254;89540;-55
2023/01/16 09:28:54;;;;;;;8.20;4.60;;;;;;;4.93;83.80;99202.92;107431;1254;95216;-55
2023/01/16 09:31:41;;;;;;;9.40;4.60;;;;;;;4.85;83.65;99196.67;107423;1254;81001;-54
2023/01/16 09:34:21;;;;;;;7.70;4.50;;;;;;;4.89;84.10;99194.92;107482;1254;80899;-54
2023/01/16 09:37:02;;;;;;;8.40;4.70;;;;;;;5.00;84.15;99192.16;107372;1254;98966;-54
2023/01/16 09:39:40;;;;;;;6.40;4.50;;;;;;;5.07;84.12;99189.30;107407;1254;87905;-54
2023/01/16 09:45:36;;;;;;;7.40;4.40;;;;;;;5.35;84.17;99185.84;107243;1254;78625;-53
2023/01/16 09:48:23;;;;;;;7.80;4.90;;;;;;;5.53;83.61;99188.01;107383;1254;82490;-53
2023/01/16 09:51:09;;;;;;;7.90;4.80;;;;;;;5.67;83.71;99181.92;107372;1254;98161;-53
2023/01/16 09:59:52;;;;;;;6.20;4.50;;;;;;;6.25;82.76;99176.15;107349;1254;79786;-54
2023/01/16 10:02:35;;;;;;;7.40;5.10;;;;;;;6.40;83.03;99173.30;107386;1254;81235;-54
2023/01/16 10:05:17;;;;;;;7.60;5.00;;;;;;;6.49;82.51;99168.95;107418;1254;97635;-53
2023/01/16 10:08:05;;;;;;;8.10;5.50;;;;;;;6.72;82.12;99159.96;107396;1258;88578;-52
2023/01/16 10:10:56;;;;;;;8.40;5.60;;;;;;;6.94;82.31;99165.34;107430;1254;94336;-53
2023/01/16 10:14:00;;;;;;;11.00;5.40;;;;;;;7.10;82.09;99158.71;107392;1254;79718;-53
2023/01/16 10:16:54;;;;;;;7.80;4.80;;;;;;;7.14;81.78;99159.52;107441;1254;83177;-52
2023/01/16 10:19:58;;;;;;;10.50;5.30;;;;;;;7.13;80.69;99158.39;107401;1254;98861;-52
2023/01/16 10:22:54;;;;;;;10.70;6.10;;;;;;;6.90;80.09;99152.83;107379;1254;88715;-56
2023/01/16 10:25:43;;;;;;;8.70;5.90;;;;;;;6.69;78.95;99144.64;107419;1254;95249;-52
2023/01/16 10:28:37;;;;;;;12.40;6.00;;;;;;;6.48;79.07;99140.71;107361;1254;80542;-52
2023/01/16 10:31:20;;;;;;;13.80;6.50;;;;;;;6.31;79.16;99138.70;107390;1254;80974;-53
2023/01/16 10:34:02;;;;;;;9.80;6.40;;;;;;;6.28;78.98;99131.12;107355;1254;96866;-52
2023/01/16 10:36:57;;;;;;;14.20;6.40;;;;;;;6.04;78.14;99129.13;107408;1254;89068;-54
2023/01/16 10:39:37;;;;;;;10.10;6.80;;;;;;;5.86;78.87;99121.92;107357;1254;92243;-52
2023/01/16 10:51:20;;;;;;;11.10;6.40;;;;;;;5.76;79.30;99104.70;107483;1254;87559;-55
2023/01/16 10:53:55;;;;;;;9.60;6.80;;;;;;;5.73;79.61;99098.88;107445;1254;94286;-55
2023/01/16 10:56:29;;;;;;;11.80;7.30;;;;;;;5.73;79.58;99099.55;107454;1254;79222;-52
2023/01/16 10:59:13;;;;;;;13.00;7.40;;;;;;;5.74;79.69;99093.67;107505;1254;81748;-53
2023/01/16 11:02:00;;;;;;;12.10;6.90;;;;;;;5.65;79.79;99087.52;107422;1254;97189;-52
2023/01/16 11:04:46;;;;;;;15.70;8.10;;;;;;;5.66;79.76;99080.88;107411;1254;87816;-54
2023/01/16 11:07:31;;;;;;;10.70;7.50;;;;;;;5.65;79.86;99076.05;107432;1254;93781;-54
2023/01/16 11:10:07;;;;;;;11.30;7.40;;;;;;;5.66;80.31;99072.84;107428;1258;79634;-52
2023/01/16 11:19:02;;;;;;;10.20;6.60;;;;;;;5.74;80.43;99064.23;107152;1258;88207;-52
2023/01/16 11:21:45;;;;;;;11.70;7.20;;;;;;;5.73;80.13;99070.29;107352;1254;93624;-54
2023/01/16 11:24:33;;;;;;;10.00;7.30;;;;;;;5.70;80.41;99056.39;107334;1254;79912;-54
2023/01/16 11:27:19;;;;;;;12.60;8.30;;;;;;;5.75;80.19;99055.20;107411;1254;82618;-52
2023/01/16 11:30:06;;;;;;;13.20;7.80;;;;;;;5.73;80.09;99049.80;107388;1254;98645;-54
2023/01/16 11:32:49;;;;;;;11.90;7.70;;;;;;;5.70;80.09;99049.80;107371;1254;87405;-53
2023/01/16 11:35:40;;;;;;;10.80;7.80;;;;;;;5.68;79.96;99039.55;107433;1254;95126;-55
2023/01/16 11:38:22;;;;;;;12.20;7.80;;;;;;;5.62;80.25;99036.45;107447;1254;80287;-55
2023/01/16 11:41:07;;;;;;;13.10;7.90;;;;;;;5.57;80.22;99035.21;107407;1254;82052;-51
2023/01/16 11:46:58;;;;;;;14.60;7.90;;;;;;;5.46;79.89;99027.03;107361;1254;88519;-52
2023/01/16 11:49:46;;;;;;;12.10;7.80;;;;;;;5.43;79.91;99022.79;107405;1254;95048;-53
2023/01/16 11:52:28;;;;;;;11.90;6.80;;;;;;;5.43;79.98;99014.63;107376;1254;78441;-52
2023/01/16 11:55:05;;;;;;;11.90;8.20;;;;;;;5.35;79.79;99003.63;107387;1254;82511;-54
2023/01/16 11:57:56;;;;;;;10.50;7.50;;;;;;;5.26;79.92;98998.17;107399;1254;98566;-53
2023/01/16 12:00:53;;;;;;;11.70;7.90;;;;;;;5.21;79.79;98990.17;107363;1254;86832;-54
2023/01/16 12:04:08;;;;;;;12.40;7.10;;;;;;;5.19;79.53;98985.88;107374;1258;95102;-53
2023/01/16 12:07:05;;;;;;;13.10;7.30;;;;;;;5.23;79.86;98981.92;107348;1255;79014;-53
2023/01/16 12:10:02;;;;;;;10.30;7.30;;;;;;;5.26;79.83;98979.20;107349;1254;81703;-55
2023/01/16 12:15:54;;;;;;;12.00;7.50;;;;;;;5.19;79.81;98983.17;107387;1254;88418;-54
2023/01/16 12:18:43;;;;;;;12.90;8.10;;;;;;;5.18;79.85;98981.61;107385;1258;93830;-53
2023/01/16 12:21:36;;;;;;;11.30;7.60;;;;;;;5.20;80.12;98978.23;107356;1254;81197;-52
2023/01/16 12:24:30;;;;;;;13.90;8.60;;;;;;;5.15;80.10;98972.94;107433;1254;83046;-52
2023/01/16 12:27:23;;;;;;;13.00;7.90;;;;;;;5.09;79.81;98971.34;107348;1254;98814;-54
2023/01/16 12:30:20;;;;;;;10.50;7.50;;;;;;;5.04;80.20;98971.31;107434;1254;88598;-54
2023/01/16 12:33:13;;;;;;;14.50;9.30;;;;;;;5.09;80.45;98972.29;107365;1254;95326;-53
2023/01/16 12:35:57;;;;;;;14.00;8.50;;;;;;;5.19;80.48;98970.96;107403;1254;79605;-52
2023/01/16 12:38:43;;;;;;;14.10;8.70;;;;;;;5.23;80.46;98967.80;107426;1254;82706;-51
2023/01/16 12:45:11;;;;;;;12.00;8.80;;;;;;;5.20;80.29;98955.02;107411;1254;88094;-60
2023/01/16 12:48:07;;;;;;;15.50;9.70;;;;;;;5.22;80.50;98949.91;107404;1254;94383;-52
2023/01/16 12:51:06;;;;;;;14.20;9.30;;;;;;;5.24;80.38;98951.16;107348;1254;80923;-54
2023/01/16 12:54:06;;;;;;;13.70;9.60;;;;;;;5.09;80.52;98934.75;107359;1254;83420;-54
2023/01/16 12:56:59;;;;;;;16.40;10.50;;;;;;;4.98;80.60;98924.05;107391;1255;99311;-54
2023/01/16 12:59:46;;;;;;;15.30;10.50;;;;;;;4.98;80.68;98926.18;107358;1254;87179;-56
2023/01/16 13:02:35;;;;;;;17.00;10.80;;;;;;;4.97;80.91;98925.23;107327;1254;95009;-56
2023/01/16 13:05:18;;;;;;;16.70;11.10;;;;;;;4.98;81.20;98914.12;107377;1254;79298;-55
2023/01/16 13:08:01;;;;;;;17.20;11.40;;;;;;;5.05;81.15;98910.25;107378;1254;82950;-57
2023/01/16 13:13:44;;;;;;;19.00;12.60;;;;;;;5.00;81.12;98906.11;107364;1254;89060;-55
2023/01/16 13:16:28;;;;;;;19.50;12.80;;;;;;;4.92;81.15;98898.91;107265;1259;94963;-55
2023/01/16 13:19:12;;;;;;;18.70;13.70;;;;;;;4.90;81.42;98902.79;107390;1254;79951;-57
2023/01/16 13:22:02;;;;;;;20.60;13.80;;;;;;;4.81;81.58;98903.06;107459;1254;83207;-55
2023/01/16 13:24:48;;;;;;;21.10;14.70;;;;;;;4.75;81.61;98907.25;107428;1254;98325;-54
2023/01/16 13:27:38;;;;;;;17.80;13.10;;;;;;;4.72;81.70;98905.35;107367;1258;88542;-53
2023/01/16 13:30:26;;;;;;;19.90;14.30;;;;;;;4.66;82.01;98901.79;107354;1254;93817;-53
2023/01/16 13:33:08;;;;;;;18.80;14.70;;;;;;;4.63;82.26;98898.60;107335;1255;81574;-52
2023/01/16 13:36:06;;;;;;;19.70;14.60;;;;;;;4.69;82.35;98894.26;107058;1254;394911;-53
2023/01/16 13:39:13;;;;;;;17.90;13.80;;;;;;;4.80;82.34;98887.55;107338;1254;98117;-53
2023/01/16 13:41:57;;;;;;;22.50;15.90;;;;;;;4.83;82.35;98889.02;107355;1254;88728;-54
2023/01/16 13:47:44;;;;;;;19.70;14.10;;;;;;;4.89;82.39;98877.15;107275;1254;81552;-53
2023/01/16 13:50:32;;;;;;;20.50;14.70;;;;;;;4.88;82.19;98881.74;107318;1255;80560;-54
2023/01/16 13:53:14;;;;;;;20.00;13.40;;;;;;;4.92;82.49;98877.17;107334;1254;98303;-57